createdAt,value
2018-11-21T00:00:36.765Z,8.92
2018-11-21T00:03:03.083Z,8.93
2018-11-21T00:05:29.410Z,8.92
2018-11-21T00:07:55.761Z,8.91
2018-11-21T00:10:22.071Z,8.93
2018-11-21T00:12:48.389Z,8.93
2018-11-21T00:15:14.705Z,8.93
2018-11-21T00:17:41.049Z,8.92
2018-11-21T00:20:07.373Z,8.93
2018-11-21T00:22:33.709Z,8.93
2018-11-21T00:25:00.038Z,8.93
2018-11-21T00:27:26.344Z,8.92
2018-11-21T00:29:52.645Z,8.91
2018-11-21T00:32:18.947Z,8.92
2018-11-21T00:34:45.284Z,8.92
2018-11-21T00:37:11.588Z,8.92
2018-11-21T00:39:37.906Z,8.91
2018-11-21T00:42:04.229Z,8.91
2018-11-21T00:44:30.541Z,8.91
2018-11-21T00:46:56.856Z,8.90
2018-11-21T00:49:23.162Z,8.90
2018-11-21T00:51:49.498Z,8.89
2018-11-21T00:54:15.809Z,8.88
2018-11-21T00:56:42.151Z,8.88
2018-11-21T00:59:08.473Z,8.88
2018-11-21T01:01:34.783Z,8.86
2018-11-21T01:04:01.104Z,8.87
2018-11-21T01:06:27.412Z,8.88
2018-11-21T01:08:53.743Z,8.88
2018-11-21T01:11:20.069Z,8.87
2018-11-21T01:13:46.402Z,8.88
2018-11-21T01:16:12.743Z,8.87
2018-11-21T01:18:39.105Z,8.87
2018-11-21T01:21:05.411Z,8.87
2018-11-21T01:23:31.790Z,8.88
2018-11-21T01:25:58.174Z,8.88
2018-11-21T01:28:24.580Z,8.88
2018-11-21T01:30:50.891Z,8.89
2018-11-21T01:33:17.268Z,8.89
2018-11-21T01:35:43.576Z,8.90
2018-11-21T01:38:09.927Z,8.91
2018-11-21T01:40:36.249Z,8.91
2018-11-21T01:43:02.609Z,8.91
2018-11-21T01:45:28.940Z,8.92
2018-11-21T01:47:55.438Z,8.92
2018-11-21T01:50:21.810Z,8.93
2018-11-21T01:52:48.091Z,8.93
2018-11-21T01:55:14.444Z,8.94
2018-11-21T01:57:40.763Z,8.94
2018-11-21T02:00:07.131Z,8.95
2018-11-21T02:02:37.479Z,8.96
2018-11-21T02:05:03.805Z,8.97
2018-11-21T02:07:30.136Z,8.98
2018-11-21T02:09:56.453Z,8.97
2018-11-21T02:12:23.135Z,8.98
2018-11-21T02:14:50.157Z,8.99
2018-11-21T02:17:16.467Z,9.00
2018-11-21T02:19:42.779Z,9.00
2018-11-21T02:22:09.128Z,9.00
2018-11-21T02:24:35.442Z,9.01
2018-11-21T02:27:01.765Z,9.01
2018-11-21T02:29:28.089Z,9.01
2018-11-21T02:31:54.408Z,9.01
2018-11-21T02:34:20.711Z,9.02
2018-11-21T02:36:47.048Z,9.02
2018-11-21T02:39:13.343Z,9.02
2018-11-21T02:41:39.660Z,9.03
2018-11-21T02:44:06.044Z,9.04
2018-11-21T02:46:32.300Z,9.03
2018-11-21T02:48:58.663Z,9.04
2018-11-21T02:51:25.007Z,9.04
2018-11-21T02:53:51.348Z,9.04
2018-11-21T02:56:17.646Z,9.05
2018-11-21T02:58:43.974Z,9.04
2018-11-21T03:01:10.312Z,9.05
2018-11-21T03:03:36.644Z,9.05
2018-11-21T03:06:02.948Z,9.04
2018-11-21T03:08:29.256Z,9.03
2018-11-21T03:10:55.590Z,9.03
2018-11-21T03:13:28.120Z,9.03
2018-11-21T03:15:48.222Z,9.03
2018-11-21T03:18:14.551Z,9.04
2018-11-21T03:20:40.888Z,9.04
2018-11-21T03:23:07.195Z,9.04
2018-11-21T03:25:33.514Z,9.03
2018-11-21T03:27:59.828Z,9.05
2018-11-21T03:30:26.183Z,9.05
2018-11-21T03:32:52.481Z,9.07
2018-11-21T03:35:18.838Z,9.06
2018-11-21T03:37:45.184Z,9.07
2018-11-21T03:40:11.515Z,9.07
2018-11-21T03:42:37.825Z,9.08
2018-11-21T03:45:04.183Z,9.08
2018-11-21T03:47:30.499Z,9.09
2018-11-21T03:49:56.818Z,9.10
2018-11-21T03:52:23.174Z,9.10
2018-11-21T03:54:49.486Z,9.10
2018-11-21T03:57:15.838Z,9.10
2018-11-21T03:59:42.145Z,9.11
2018-11-21T04:02:08.525Z,9.11
2018-11-21T04:04:34.837Z,9.12
2018-11-21T04:07:01.201Z,9.12
2018-11-21T04:09:27.494Z,9.13
2018-11-21T04:11:54.586Z,9.12
2018-11-21T04:14:20.138Z,9.14
2018-11-21T04:16:46.466Z,9.14
2018-11-21T04:19:12.820Z,9.15
2018-11-21T04:21:39.152Z,9.15
2018-11-21T04:24:05.459Z,9.15
2018-11-21T04:26:31.768Z,9.16
2018-11-21T04:28:58.102Z,9.17
2018-11-21T04:31:24.442Z,9.18
2018-11-21T04:33:50.744Z,9.18
2018-11-21T04:36:17.055Z,9.19
2018-11-21T04:38:43.433Z,9.19
2018-11-21T04:41:09.792Z,9.19
2018-11-21T04:43:36.118Z,9.19
2018-11-21T04:46:02.445Z,9.19
2018-11-21T04:48:28.801Z,9.20
2018-11-21T04:50:55.133Z,9.19
2018-11-21T04:53:21.433Z,9.20
2018-11-21T04:55:47.736Z,9.21
2018-11-21T04:58:14.043Z,9.21
2018-11-21T05:00:40.380Z,9.22
2018-11-21T05:03:06.677Z,9.21
2018-11-21T05:05:33.024Z,9.22
2018-11-21T05:07:59.364Z,9.22
2018-11-21T05:10:25.679Z,9.22
2018-11-21T05:12:51.988Z,9.24
2018-11-21T05:15:18.314Z,9.24
2018-11-21T05:17:44.620Z,9.22
2018-11-21T05:20:10.925Z,9.23
2018-11-21T05:22:37.255Z,9.24
2018-11-21T05:25:03.585Z,9.24
2018-11-21T05:27:29.928Z,9.24
2018-11-21T05:29:56.259Z,9.24
2018-11-21T05:32:22.585Z,9.23
2018-11-21T05:34:48.918Z,9.23
2018-11-21T05:37:15.242Z,9.23
2018-11-21T05:39:41.572Z,9.23
2018-11-21T05:42:07.956Z,9.72
2018-11-21T05:44:34.230Z,10.77
2018-11-21T05:47:00.635Z,11.41
2018-11-21T05:49:26.896Z,11.40
2018-11-21T05:51:53.198Z,10.83
2018-11-21T05:54:19.559Z,10.34
2018-11-21T05:56:45.956Z,9.88
2018-11-21T05:59:12.229Z,9.57
2018-11-21T06:01:38.565Z,9.31
2018-11-21T06:04:04.894Z,9.16
2018-11-21T06:06:31.201Z,9.04
2018-11-21T06:08:57.523Z,8.91
2018-11-21T06:11:23.871Z,8.84
2018-11-21T06:13:50.200Z,8.79
2018-11-21T06:16:16.519Z,8.71
2018-11-21T06:18:42.843Z,8.62
2018-11-21T06:21:09.146Z,8.62
2018-11-21T06:23:35.475Z,8.67
2018-11-21T06:26:01.776Z,8.69
2018-11-21T06:28:28.106Z,8.64
2018-11-21T06:30:54.416Z,8.62
2018-11-21T06:33:20.737Z,8.61
2018-11-21T06:35:47.069Z,8.55
2018-11-21T06:38:13.403Z,8.54
2018-11-21T06:40:39.732Z,8.54
2018-11-21T06:43:06.049Z,8.53
2018-11-21T06:45:32.395Z,8.47
2018-11-21T06:47:58.712Z,8.44
2018-11-21T06:50:25.061Z,8.42
2018-11-21T06:52:51.421Z,8.41
2018-11-21T06:55:17.743Z,8.43
2018-11-21T06:57:44.060Z,8.39
2018-11-21T07:00:10.431Z,8.35
2018-11-21T07:02:36.743Z,8.34
2018-11-21T07:05:03.091Z,8.29
2018-11-21T07:07:29.436Z,8.30
2018-11-21T07:09:55.777Z,8.28
2018-11-21T07:12:22.100Z,8.27
2018-11-21T07:14:48.453Z,8.24
2018-11-21T07:17:14.774Z,8.28
2018-11-21T07:19:41.050Z,8.29
2018-11-21T07:22:07.389Z,8.28
2018-11-21T07:24:33.712Z,8.28
2018-11-21T07:27:00.039Z,8.30
2018-11-21T07:29:26.489Z,8.29
2018-11-21T07:31:52.815Z,8.26
2018-11-21T07:34:19.147Z,8.23
2018-11-21T07:36:45.505Z,8.19
2018-11-21T07:39:11.828Z,8.20
2018-11-21T07:41:38.154Z,8.21
2018-11-21T07:44:04.498Z,8.20
2018-11-21T07:46:30.829Z,8.20
2018-11-21T07:48:57.166Z,8.22
2018-11-21T07:51:23.526Z,8.20
2018-11-21T07:53:49.868Z,8.12
2018-11-21T07:56:16.295Z,8.13
2018-11-21T07:58:42.606Z,8.18
2018-11-21T08:01:08.951Z,8.13
2018-11-21T08:03:35.257Z,8.15
2018-11-21T08:06:01.637Z,8.19
2018-11-21T08:08:27.992Z,8.20
2018-11-21T08:10:54.317Z,8.19
2018-11-21T08:13:20.673Z,8.18
2018-11-21T08:15:46.986Z,8.19
2018-11-21T08:18:13.368Z,8.17
2018-11-21T08:20:39.660Z,8.18
2018-11-21T08:23:05.982Z,8.15
2018-11-21T08:25:32.318Z,8.15
2018-11-21T08:27:58.645Z,8.14
2018-11-21T08:30:24.999Z,8.14
2018-11-21T08:32:51.311Z,8.17
2018-11-21T08:35:17.625Z,8.18
2018-11-21T08:37:43.963Z,8.19
2018-11-21T08:40:10.292Z,8.19
2018-11-21T08:42:36.630Z,8.17
2018-11-21T08:45:02.964Z,8.14
2018-11-21T08:47:29.311Z,8.13
2018-11-21T08:49:55.650Z,8.13
2018-11-21T08:52:21.980Z,8.14
2018-11-21T08:54:48.283Z,8.16
2018-11-21T08:57:14.615Z,8.14
2018-11-21T08:59:40.922Z,8.15
2018-11-21T09:02:07.246Z,8.14
2018-11-21T09:04:33.549Z,8.14
2018-11-21T09:07:00.220Z,8.13
2018-11-21T09:09:26.171Z,8.14
2018-11-21T09:11:52.477Z,8.11
2018-11-21T09:14:18.814Z,8.11
2018-11-21T09:16:45.189Z,8.13
2018-11-21T09:19:11.521Z,8.16
2018-11-21T09:21:37.869Z,8.14
2018-11-21T09:24:04.221Z,8.13
2018-11-21T09:26:30.586Z,8.13
2018-11-21T09:28:56.919Z,8.10
2018-11-21T09:31:23.239Z,8.08
2018-11-21T09:33:49.573Z,8.05
2018-11-21T09:36:15.910Z,7.99
2018-11-21T09:38:42.214Z,7.96
2018-11-21T09:41:08.554Z,7.93
2018-11-21T09:43:34.858Z,7.92
2018-11-21T09:46:01.161Z,7.85
2018-11-21T09:48:27.493Z,7.82
2018-11-21T09:50:53.887Z,7.82
2018-11-21T09:53:20.272Z,7.82
2018-11-21T09:55:46.615Z,7.79
2018-11-21T09:58:12.993Z,7.77
2018-11-21T10:00:39.424Z,7.76
2018-11-21T10:03:05.762Z,7.74
2018-11-21T10:05:32.086Z,7.71
2018-11-21T10:07:58.437Z,7.70
2018-11-21T10:10:24.755Z,7.71
2018-11-21T10:12:51.085Z,7.69
2018-11-21T10:15:17.395Z,7.69
2018-11-21T10:17:43.771Z,7.67
2018-11-21T10:20:11.404Z,7.66
2018-11-21T10:22:36.395Z,7.67
2018-11-21T10:25:02.730Z,7.68
2018-11-21T10:27:29.044Z,7.65
2018-11-21T10:29:55.453Z,7.64
2018-11-21T10:32:21.776Z,7.65
2018-11-21T10:34:48.120Z,7.65
2018-11-21T10:37:14.455Z,7.66
2018-11-21T10:39:40.868Z,7.63
2018-11-21T10:42:07.199Z,7.64
2018-11-21T10:44:35.790Z,7.66
2018-11-21T10:47:05.170Z,7.61
2018-11-21T10:49:31.485Z,7.60
2018-11-21T10:51:57.870Z,7.52
2018-11-21T10:54:24.192Z,7.61
2018-11-21T10:56:50.511Z,7.61
2018-11-21T10:59:16.829Z,7.62
2018-11-21T11:01:43.333Z,7.61
2018-11-21T11:04:09.682Z,7.62
2018-11-21T11:06:36.030Z,7.60
2018-11-21T11:09:02.447Z,7.58
2018-11-21T11:11:28.921Z,7.56
2018-11-21T11:13:55.276Z,7.60
2018-11-21T11:16:21.616Z,7.62
2018-11-21T11:18:47.995Z,7.60
2018-11-21T11:21:14.339Z,7.57
2018-11-21T11:23:40.649Z,7.56
2018-11-21T11:26:06.954Z,7.56
2018-11-21T11:28:33.255Z,7.57
2018-11-21T11:30:59.586Z,7.53
2018-11-21T11:33:25.920Z,7.57
2018-11-21T11:35:52.253Z,7.57
2018-11-21T11:38:18.591Z,7.56
2018-11-21T11:40:44.906Z,7.51
2018-11-21T11:43:11.204Z,7.47
2018-11-21T11:45:37.512Z,7.50
2018-11-21T11:48:03.842Z,7.47
2018-11-21T11:50:30.229Z,7.40
2018-11-21T11:52:56.600Z,7.36
2018-11-21T11:55:22.941Z,7.39
2018-11-21T11:57:49.277Z,7.39
2018-11-21T12:00:15.634Z,7.44
2018-11-21T12:02:41.937Z,7.51
2018-11-21T12:05:08.247Z,7.57
2018-11-21T12:07:34.640Z,7.59
2018-11-21T12:10:01.028Z,7.55
2018-11-21T12:12:27.374Z,7.51
2018-11-21T12:14:53.784Z,7.50
2018-11-21T12:17:21.766Z,7.52
2018-11-21T12:19:46.544Z,7.50
2018-11-21T12:22:12.836Z,7.51
2018-11-21T12:24:39.277Z,7.49
2018-11-21T12:27:05.709Z,7.52
2018-11-21T12:29:36.102Z,7.51
2018-11-21T12:32:01.605Z,7.49
2018-11-21T12:34:28.091Z,7.49
2018-11-21T12:36:54.426Z,7.47
2018-11-21T12:39:20.876Z,7.45
2018-11-21T12:41:47.368Z,7.49
2018-11-21T12:44:13.661Z,7.47
2018-11-21T12:46:40.054Z,7.45
2018-11-21T12:49:06.466Z,7.46
2018-11-21T12:51:32.800Z,7.44
2018-11-21T12:53:59.135Z,7.38
2018-11-21T12:56:25.496Z,7.37
2018-11-21T12:58:51.925Z,7.36
2018-11-21T13:01:18.522Z,7.38
2018-11-21T13:03:44.842Z,7.40
2018-11-21T13:06:11.275Z,7.44
2018-11-21T13:08:37.649Z,7.43
2018-11-21T13:11:04.132Z,7.39
2018-11-21T13:13:30.599Z,7.35
2018-11-21T13:15:57.098Z,7.33
2018-11-21T13:18:23.588Z,7.39
2018-11-21T13:20:49.974Z,7.37
2018-11-21T13:23:16.507Z,7.36
2018-11-21T13:25:42.931Z,7.35
2018-11-21T13:28:09.249Z,7.34
2018-11-21T13:30:35.663Z,7.35
2018-11-21T13:33:02.034Z,7.34
2018-11-21T13:35:28.523Z,7.33
2018-11-21T13:37:54.873Z,7.28
2018-11-21T13:40:22.888Z,7.23
2018-11-21T13:42:49.248Z,7.21
2018-11-21T13:45:15.706Z,7.23
2018-11-21T13:47:42.131Z,7.25
2018-11-21T13:50:08.618Z,7.27
2018-11-21T13:52:34.950Z,7.14
2018-11-21T13:55:01.288Z,7.20
2018-11-21T13:57:27.639Z,7.19
2018-11-21T13:59:53.913Z,7.24
2018-11-21T14:02:20.277Z,7.24
2018-11-21T14:04:46.587Z,7.22
2018-11-21T14:07:12.981Z,7.19
2018-11-21T14:09:39.431Z,7.21
2018-11-21T14:12:05.736Z,7.19
2018-11-21T14:14:32.039Z,7.18
2018-11-21T14:16:58.396Z,7.15
2018-11-21T14:19:24.714Z,7.12
2018-11-21T14:21:55.813Z,7.11
2018-11-21T14:24:17.420Z,7.11
2018-11-21T14:26:43.761Z,7.10
2018-11-21T14:29:10.140Z,7.07
2018-11-21T14:31:36.430Z,7.05
2018-11-21T14:34:02.848Z,7.06
2018-11-21T14:36:29.140Z,7.09
2018-11-21T14:38:55.536Z,7.05
2018-11-21T14:41:21.842Z,6.99
2018-11-21T14:43:48.164Z,6.99
2018-11-21T14:46:14.471Z,7.01
2018-11-21T14:48:40.856Z,7.04
2018-11-21T14:51:07.152Z,7.05
2018-11-21T14:53:33.481Z,7.05
2018-11-21T14:55:59.824Z,7.01
2018-11-21T14:58:26.146Z,6.94
2018-11-21T15:00:52.477Z,6.92
2018-11-21T15:03:18.813Z,6.89
2018-11-21T15:05:45.117Z,6.89
2018-11-21T15:08:11.423Z,6.89
2018-11-21T15:10:37.735Z,6.85
2018-11-21T15:13:04.042Z,6.85
2018-11-21T15:15:30.448Z,6.85
2018-11-21T15:17:56.777Z,6.98
2018-11-21T15:20:23.154Z,6.98
2018-11-21T15:22:49.511Z,6.99
2018-11-21T15:25:15.781Z,6.98
2018-11-21T15:27:42.174Z,6.97
2018-11-21T15:30:08.536Z,6.96
2018-11-21T15:32:34.858Z,6.89
2018-11-21T15:35:01.191Z,6.83
2018-11-21T15:37:27.535Z,6.81
2018-11-21T15:39:54.004Z,6.77
2018-11-21T15:42:22.795Z,6.78
2018-11-21T15:44:49.211Z,6.79
2018-11-21T15:47:15.570Z,6.78
2018-11-21T15:49:41.862Z,6.77
2018-11-21T15:52:08.192Z,6.74
2018-11-21T15:54:34.636Z,6.70
2018-11-21T15:57:01.049Z,6.68
2018-11-21T15:59:27.417Z,6.70
2018-11-21T16:01:53.748Z,6.74
2018-11-21T16:04:20.524Z,6.71
2018-11-21T16:06:46.930Z,6.68
2018-11-21T16:09:13.282Z,6.69
2018-11-21T16:11:39.683Z,6.71
2018-11-21T16:14:06.067Z,6.68
2018-11-21T16:16:32.525Z,6.64
2018-11-21T16:18:58.854Z,6.59
2018-11-21T16:21:25.277Z,6.59
2018-11-21T16:23:51.612Z,6.64
2018-11-21T16:26:17.992Z,6.83
2018-11-21T16:28:44.333Z,6.94
2018-11-21T16:31:10.656Z,6.92
2018-11-21T16:33:37.032Z,7.19
2018-11-21T16:36:03.363Z,7.44
2018-11-21T16:38:29.683Z,7.54
2018-11-21T16:40:56.054Z,7.60
2018-11-21T16:43:22.397Z,7.60
2018-11-21T16:45:48.765Z,7.65
2018-11-21T16:48:15.071Z,7.66
2018-11-21T16:50:41.406Z,7.68
2018-11-21T16:53:07.732Z,7.72
2018-11-21T16:55:34.074Z,7.86
2018-11-21T16:58:00.418Z,7.91
2018-11-21T17:00:26.812Z,7.90
2018-11-21T17:02:53.126Z,7.86
2018-11-21T17:05:19.449Z,7.86
2018-11-21T17:07:45.765Z,7.85
2018-11-21T17:10:12.129Z,7.84
2018-11-21T17:12:38.550Z,7.84
2018-11-21T17:15:04.862Z,7.82
2018-11-21T17:17:31.228Z,7.82
2018-11-21T17:19:57.549Z,7.82
2018-11-21T17:22:23.868Z,7.80
2018-11-21T17:24:50.180Z,7.82
2018-11-21T17:27:16.626Z,7.81
2018-11-21T17:29:53.646Z,7.82
2018-11-21T17:32:09.165Z,7.83
2018-11-21T17:34:35.495Z,7.83
2018-11-21T17:37:01.832Z,7.83
2018-11-21T17:39:28.165Z,7.82
2018-11-21T17:41:54.523Z,7.83
2018-11-21T17:44:20.851Z,7.81
2018-11-21T17:46:47.176Z,7.83
2018-11-21T17:49:13.515Z,7.84
2018-11-21T17:51:39.820Z,7.84
2018-11-21T17:54:06.165Z,7.84
2018-11-21T17:56:32.468Z,7.84
2018-11-21T17:58:58.834Z,7.84
2018-11-21T18:01:25.128Z,7.83
2018-11-21T18:03:51.480Z,7.83
2018-11-21T18:06:17.804Z,7.84
2018-11-21T18:08:44.133Z,7.83
2018-11-21T18:11:10.435Z,7.84
2018-11-21T18:13:36.738Z,7.84
2018-11-21T18:16:03.051Z,7.84
2018-11-21T18:18:29.396Z,7.85
2018-11-21T18:20:55.722Z,7.85
2018-11-21T18:23:22.027Z,7.84
2018-11-21T18:25:48.365Z,7.85
2018-11-21T18:28:14.657Z,7.85
2018-11-21T18:30:40.999Z,7.85
2018-11-21T18:33:07.367Z,7.85
2018-11-21T18:35:35.664Z,7.85
2018-11-21T18:38:00.216Z,7.85
2018-11-21T18:40:26.312Z,7.85
2018-11-21T18:42:52.669Z,7.84
2018-11-21T18:45:18.996Z,7.85
2018-11-21T18:47:45.392Z,7.84
2018-11-21T18:50:11.727Z,7.84
2018-11-21T18:52:38.030Z,7.82
2018-11-21T18:55:04.382Z,7.84
2018-11-21T18:57:30.718Z,7.84
2018-11-21T18:59:57.054Z,7.84
2018-11-21T19:02:23.381Z,7.84
2018-11-21T19:04:49.688Z,7.84
2018-11-21T19:07:16.042Z,7.84
2018-11-21T19:09:42.465Z,7.84
2018-11-21T19:12:08.776Z,7.83
2018-11-21T19:14:35.160Z,7.84
2018-11-21T19:17:01.565Z,7.84
2018-11-21T19:19:27.791Z,7.84
2018-11-21T19:21:54.131Z,7.84
2018-11-21T19:24:20.459Z,7.84
2018-11-21T19:26:46.789Z,7.84
2018-11-21T19:29:13.123Z,7.83
2018-11-21T19:31:39.469Z,7.84
2018-11-21T19:34:05.836Z,7.84
2018-11-21T19:36:32.178Z,7.84
2018-11-21T19:38:58.543Z,7.83
2018-11-21T19:41:24.878Z,7.82
2018-11-21T19:43:51.228Z,7.82
2018-11-21T19:46:17.529Z,7.83
2018-11-21T19:48:43.852Z,7.83
2018-11-21T19:51:10.145Z,7.84
2018-11-21T19:53:36.578Z,7.84
2018-11-21T19:56:02.898Z,7.84
2018-11-21T19:58:29.241Z,7.84
2018-11-21T20:00:55.578Z,7.84
2018-11-21T20:03:21.926Z,7.82
2018-11-21T20:05:48.276Z,7.83
2018-11-21T20:08:14.718Z,7.83
2018-11-21T20:10:41.021Z,7.83
2018-11-21T20:13:07.327Z,7.81
2018-11-21T20:15:33.648Z,7.83
2018-11-21T20:17:59.952Z,7.83
2018-11-21T20:20:26.280Z,7.83
2018-11-21T20:22:52.609Z,7.83
2018-11-21T20:25:18.914Z,7.83
2018-11-21T20:27:45.331Z,7.84
2018-11-21T20:30:11.589Z,7.84
2018-11-21T20:32:37.953Z,7.84
2018-11-21T20:35:07.825Z,7.84
2018-11-21T20:37:30.614Z,7.84
2018-11-21T20:39:56.929Z,7.85
2018-11-21T20:42:23.260Z,7.84
2018-11-21T20:44:49.580Z,7.84
2018-11-21T20:47:15.915Z,7.84
2018-11-21T20:49:42.234Z,7.83
2018-11-21T20:52:08.545Z,7.84
2018-11-21T20:54:34.857Z,7.84
2018-11-21T20:57:01.171Z,7.84
2018-11-21T20:59:27.502Z,7.84
2018-11-21T21:01:53.814Z,7.84
2018-11-21T21:04:20.117Z,7.84
2018-11-21T21:06:46.443Z,7.80
2018-11-21T21:09:12.748Z,7.83
2018-11-21T21:11:39.088Z,7.83
2018-11-21T21:14:05.454Z,7.84
2018-11-21T21:16:31.783Z,7.83
2018-11-21T21:18:58.186Z,7.83
2018-11-21T21:21:24.528Z,7.83
2018-11-21T21:23:50.890Z,7.83
2018-11-21T21:26:17.193Z,7.83
2018-11-21T21:28:43.540Z,7.83
2018-11-21T21:31:09.876Z,7.79
2018-11-21T21:33:36.193Z,7.83
2018-11-21T21:36:02.527Z,7.83
2018-11-21T21:38:28.829Z,7.84
2018-11-21T21:40:55.155Z,7.84
2018-11-21T21:43:21.479Z,7.82
2018-11-21T21:45:47.863Z,7.77
2018-11-21T21:48:14.198Z,7.83
2018-11-21T21:50:40.564Z,7.82
2018-11-21T21:53:06.883Z,7.84
2018-11-21T21:55:33.238Z,7.83
2018-11-21T21:57:59.553Z,7.83
2018-11-21T22:00:25.856Z,7.83
2018-11-21T22:02:52.194Z,7.84
2018-11-21T22:05:18.531Z,7.85
2018-11-21T22:07:44.836Z,7.83
2018-11-21T22:10:11.149Z,7.84
2018-11-21T22:12:37.519Z,7.84
2018-11-21T22:15:03.827Z,7.84
2018-11-21T22:17:30.156Z,7.83
2018-11-21T22:19:56.511Z,7.83
2018-11-21T22:22:22.816Z,7.84
2018-11-21T22:24:49.283Z,7.85
2018-11-21T22:27:15.647Z,7.85
2018-11-21T22:29:41.948Z,7.85
2018-11-21T22:32:08.276Z,7.84
2018-11-21T22:34:34.616Z,7.84
2018-11-21T22:37:00.947Z,7.84
2018-11-21T22:39:27.272Z,7.84
2018-11-21T22:41:53.611Z,7.84
2018-11-21T22:44:19.933Z,7.84
2018-11-21T22:46:46.333Z,7.85
2018-11-21T22:49:12.624Z,7.84
2018-11-21T22:51:38.922Z,7.84
2018-11-21T22:54:05.261Z,7.83
2018-11-21T22:56:31.582Z,7.84
2018-11-21T22:58:57.908Z,7.84
2018-11-21T23:01:24.210Z,7.84
2018-11-21T23:03:50.505Z,7.83
2018-11-21T23:06:16.810Z,7.83
2018-11-21T23:08:48.150Z,7.84
2018-11-21T23:11:09.434Z,7.82
2018-11-21T23:13:35.791Z,7.83
2018-11-21T23:16:02.119Z,7.83
2018-11-21T23:18:28.428Z,7.83
2018-11-21T23:20:54.733Z,7.83
2018-11-21T23:23:21.061Z,7.84
2018-11-21T23:25:47.378Z,7.81
2018-11-21T23:28:13.683Z,7.84
2018-11-21T23:30:39.984Z,7.83
2018-11-21T23:33:06.293Z,7.83
2018-11-21T23:35:32.594Z,7.84
2018-11-21T23:37:58.903Z,7.85
2018-11-21T23:40:25.194Z,7.84
2018-11-21T23:42:51.495Z,7.83
2018-11-21T23:45:17.815Z,7.83
2018-11-21T23:47:44.145Z,7.83
2018-11-21T23:50:10.475Z,7.83
2018-11-21T23:52:36.779Z,7.83
2018-11-21T23:55:03.088Z,7.83
2018-11-21T23:57:29.393Z,7.84
2018-11-21T23:59:55.723Z,7.83
